KSAV

Savannah / Hilton Head International Airport

Savannah, Georgia, USA
METAR KSAV 141153Z 00000KT 1/2SM R10/P6000FT -RA BR BKN003 OVC011 16/16 A3010 RMK AO2 SFC VIS 4 SLP190 P0008 60074 70100 T01560156 10156 20133 55005
Observed Flight Rules
Dec-14 @ 11:53 UTC (27 minutes ago) Instrument Flight Rules
Visibility Clouds Conditions
1/2 miles
  • Broken at 300' AGL
  • Overcast at 1,100' AGL
  • Light Rain
  • Mist
Temperatures Readings Precipitation
Current 16°C / 61°F
Dewpoint 16°C / 61°F
Humidity 100%
Altimeter 30.1" Hg
Pressure 1019 hPa
Elevation 14
Current Rain 0.08
METAR KSAV 141153Z 00000KT 1/2SM R10/P6000FT -RA BR BKN003 OVC011 16/16 A3010 RMK AO2 SFC VIS 4 SLP190 P0008 60074 70100 T01560156 10156 20133 55005
Observed Flight Rules
Dec-14 @ 11:53 UTC
(27 minutes ago)
LIFR
Clouds
  • Broken at 300' AGL
  • Overcast at 1,100' AGL
Conditions
  • Light Rain
  • Mist
Temperature Dewpoint
16°C / 61°F 16°C / 61°F
Humidity Altimeter Pressure
100% 30.1" Hg 1019 hPa
Current Rain
0.08